createdAt,value
2018-08-13T00:02:22.876Z,1.50
2018-08-13T00:04:50.950Z,1.87
2018-08-13T00:07:19.022Z,1.80
2018-08-13T00:09:47.094Z,1.53
2018-08-13T00:12:15.479Z,1.87
2018-08-13T00:14:43.567Z,1.70
2018-08-13T00:17:11.647Z,1.57
2018-08-13T00:19:39.735Z,1.80
2018-08-13T00:22:07.799Z,1.60
2018-08-13T00:24:36.142Z,1.67
2018-08-13T00:27:04.221Z,1.60
2018-08-13T00:29:32.299Z,1.50
2018-08-13T00:32:00.366Z,2.00
2018-08-13T00:34:28.444Z,1.40
2018-08-13T00:36:56.506Z,1.60
2018-08-13T00:39:24.603Z,1.70
2018-08-13T00:41:52.940Z,1.50
2018-08-13T00:44:21.010Z,1.67
2018-08-13T00:46:49.074Z,1.33
2018-08-13T00:49:17.158Z,1.70
2018-08-13T00:51:45.239Z,1.70
2018-08-13T00:54:13.314Z,1.83
2018-08-13T00:56:41.391Z,1.80
2018-08-13T00:59:09.469Z,1.60
2018-08-13T01:01:37.543Z,1.93
2018-08-13T01:04:05.621Z,1.83
2018-08-13T01:06:33.694Z,1.90
2018-08-13T01:09:01.780Z,1.60
2018-08-13T01:11:29.850Z,1.60
2018-08-13T01:13:57.922Z,1.60
2018-08-13T01:16:26.039Z,1.43
2018-08-13T01:18:54.095Z,2.03
2018-08-13T01:21:22.171Z,1.60
2018-08-13T01:23:50.235Z,1.53
2018-08-13T01:26:18.298Z,1.77
2018-08-13T01:28:46.367Z,1.50
2018-08-13T01:31:14.431Z,1.80
2018-08-13T01:33:42.503Z,1.80
2018-08-13T01:36:10.571Z,1.93
2018-08-13T01:38:38.643Z,1.73
2018-08-13T01:41:06.714Z,2.03
2018-08-13T01:43:34.786Z,1.80
2018-08-13T01:46:02.855Z,1.43
2018-08-13T01:48:30.926Z,1.60
2018-08-13T01:50:58.998Z,1.80
2018-08-13T01:53:27.075Z,1.70
2018-08-13T01:55:55.139Z,1.60
2018-08-13T01:58:23.211Z,1.63
2018-08-13T02:00:51.287Z,1.57
2018-08-13T02:03:19.359Z,1.60
2018-08-13T02:05:47.426Z,1.60
2018-08-13T02:08:15.495Z,1.80
2018-08-13T02:10:43.581Z,1.70
2018-08-13T02:13:11.639Z,1.60
2018-08-13T02:15:39.711Z,1.80
2018-08-13T02:18:07.906Z,1.33
2018-08-13T02:20:36.002Z,1.50
2018-08-13T02:23:04.334Z,1.60
2018-08-13T02:25:32.419Z,1.60
2018-08-13T02:28:00.517Z,1.43
2018-08-13T02:30:28.598Z,1.57
2018-08-13T02:32:56.697Z,1.63
2018-08-13T02:35:24.779Z,1.70
2018-08-13T02:37:52.859Z,1.77
2018-08-13T02:40:20.941Z,1.47
2018-08-13T02:42:49.028Z,1.60
2018-08-13T02:45:17.098Z,1.33
2018-08-13T02:47:45.196Z,1.40
2018-08-13T02:50:13.812Z,1.80
2018-08-13T02:52:42.219Z,1.50
2018-08-13T02:55:11.178Z,1.60
2018-08-13T02:57:39.361Z,1.40
2018-08-13T03:00:09.063Z,1.60
2018-08-13T03:02:37.447Z,1.50
2018-08-13T03:05:07.243Z,1.40
2018-08-13T03:07:35.333Z,1.50
2018-08-13T03:10:04.359Z,1.30
2018-08-13T03:12:32.438Z,1.43
2018-08-13T03:15:00.523Z,1.47
2018-08-13T03:17:31.607Z,1.27
2018-08-13T03:20:00.846Z,1.57
2018-08-13T03:22:29.991Z,1.53
2018-08-13T03:24:59.081Z,1.63
2018-08-13T03:27:27.471Z,1.67
2018-08-13T03:29:55.551Z,1.60
2018-08-13T03:32:23.652Z,1.80
2018-08-13T03:34:51.727Z,1.73
2018-08-13T03:37:19.811Z,1.77
2018-08-13T03:39:47.890Z,1.40
2018-08-13T03:42:15.983Z,2.03
2018-08-13T03:44:44.087Z,1.60
2018-08-13T03:47:12.454Z,1.87
2018-08-13T03:49:40.523Z,1.90
2018-08-13T03:52:09.510Z,1.80
2018-08-13T03:54:37.595Z,2.20
2018-08-13T03:57:05.959Z,1.73
2018-08-13T03:59:34.319Z,1.73
2018-08-13T04:02:02.411Z,1.77
2018-08-13T04:04:30.515Z,1.80
2018-08-13T04:06:58.595Z,1.70
2018-08-13T04:09:26.672Z,1.83
2018-08-13T04:11:54.767Z,1.67
2018-08-13T04:14:22.855Z,1.60
2018-08-13T04:16:57.176Z,2.00
2018-08-13T04:19:25.296Z,2.10
2018-08-13T04:21:53.378Z,1.77
2018-08-13T04:24:21.458Z,1.70
2018-08-13T04:26:49.558Z,1.60
2018-08-13T04:29:17.655Z,1.70
2018-08-13T04:31:45.995Z,1.80
2018-08-13T04:34:14.170Z,1.70
2018-08-13T04:36:42.251Z,1.40
2018-08-13T04:39:12.308Z,1.70
2018-08-13T04:41:40.528Z,1.60
2018-08-13T04:44:08.631Z,1.93
2018-08-13T04:46:36.715Z,2.07
2018-08-13T04:49:04.819Z,1.43
2018-08-13T04:51:32.926Z,1.40
2018-08-13T04:54:01.002Z,2.03
2018-08-13T04:56:29.498Z,1.57
2018-08-13T04:58:57.839Z,1.77
2018-08-13T05:01:25.916Z,1.70
2018-08-13T05:03:54.174Z,1.63
2018-08-13T05:06:22.458Z,1.77
2018-08-13T05:08:50.554Z,1.63
2018-08-13T05:11:18.658Z,2.10
2018-08-13T05:13:46.757Z,1.87
2018-08-13T05:16:14.839Z,2.03
2018-08-13T05:18:42.934Z,1.97
2018-08-13T05:21:11.049Z,2.20
2018-08-13T05:23:39.107Z,1.80
2018-08-13T05:26:07.186Z,1.73
2018-08-13T05:28:35.302Z,2.33
2018-08-13T05:31:03.430Z,2.27
2018-08-13T05:33:31.479Z,2.20
2018-08-13T05:35:59.568Z,2.00
2018-08-13T05:38:27.663Z,1.87
2018-08-13T05:40:55.731Z,2.00
2018-08-13T05:43:23.847Z,1.73
2018-08-13T05:45:51.926Z,2.10
2018-08-13T05:48:20.024Z,2.03
2018-08-13T05:50:48.106Z,2.00
2018-08-13T05:53:16.199Z,2.00
2018-08-13T05:55:44.270Z,3.00
2018-08-13T05:58:12.370Z,2.33
2018-08-13T06:00:40.473Z,2.13
2018-08-13T06:03:08.575Z,2.03
2018-08-13T06:05:36.642Z,2.20
2018-08-13T06:08:04.759Z,2.43
2018-08-13T06:10:32.838Z,2.13
2018-08-13T06:13:00.950Z,2.23
2018-08-13T06:15:29.034Z,2.10
2018-08-13T06:17:57.099Z,1.93
2018-08-13T06:20:25.162Z,2.00
2018-08-13T06:22:53.231Z,2.20
2018-08-13T06:25:21.315Z,2.03
2018-08-13T06:27:49.378Z,2.20
2018-08-13T06:30:17.459Z,2.23
2018-08-13T06:32:45.541Z,1.90
2018-08-13T06:35:14.128Z,2.43
2018-08-13T06:37:43.107Z,2.00
2018-08-13T06:40:11.595Z,1.90
2018-08-13T06:42:39.982Z,1.90
2018-08-13T06:45:09.296Z,2.33
2018-08-13T06:47:38.359Z,2.47
2018-08-13T06:50:07.672Z,2.50
2018-08-13T06:52:35.747Z,2.33
2018-08-13T06:55:04.363Z,2.63
2018-08-13T06:57:32.439Z,2.33
2018-08-13T07:00:00.510Z,2.33
2018-08-13T07:02:28.587Z,2.97
2018-08-13T07:04:56.707Z,2.10
2018-08-13T07:07:24.766Z,2.17
2018-08-13T07:09:52.857Z,2.20
2018-08-13T07:12:20.902Z,2.07
2018-08-13T07:14:48.991Z,1.90
2018-08-13T07:17:17.079Z,1.70
2018-08-13T07:19:45.166Z,1.80
2018-08-13T07:22:13.427Z,2.37
2018-08-13T07:24:41.451Z,2.33
2018-08-13T07:27:09.530Z,2.17
2018-08-13T07:29:37.864Z,1.83
2018-08-13T07:32:05.951Z,2.30
2018-08-13T07:34:34.035Z,2.90
2018-08-13T07:37:02.122Z,2.17
2018-08-13T07:39:30.225Z,2.07
2018-08-13T07:41:58.283Z,1.80
2018-08-13T07:44:26.378Z,2.27
2018-08-13T07:46:54.459Z,1.90
2018-08-13T07:49:22.551Z,2.10
2018-08-13T07:51:50.746Z,2.17
2018-08-13T07:54:18.975Z,1.80
2018-08-13T07:56:47.055Z,2.23
2018-08-13T07:59:15.143Z,2.17
2018-08-13T08:01:43.214Z,1.87
2018-08-13T08:04:11.298Z,1.93
2018-08-13T08:06:39.575Z,2.10
2018-08-13T08:09:09.713Z,1.90
2018-08-13T08:11:37.787Z,1.77
2018-08-13T08:14:06.408Z,2.57
2018-08-13T08:16:34.631Z,1.53
2018-08-13T08:19:02.707Z,1.90
2018-08-13T08:21:30.860Z,1.70
2018-08-13T08:23:58.874Z,1.80
2018-08-13T08:26:26.985Z,1.73
2018-08-13T08:28:55.183Z,1.80
2018-08-13T08:31:23.698Z,2.10
2018-08-13T08:33:52.959Z,1.60
2018-08-13T08:36:21.062Z,2.20
2018-08-13T08:38:49.126Z,2.83
2018-08-13T08:41:17.218Z,3.13
2018-08-13T08:43:45.605Z,2.63
2018-08-13T08:46:13.682Z,2.40
2018-08-13T08:48:41.769Z,2.97
2018-08-13T08:51:10.311Z,2.90
2018-08-13T08:53:38.439Z,2.70
2018-08-13T08:56:06.535Z,2.43
2018-08-13T08:58:35.030Z,2.43
2018-08-13T09:01:03.119Z,2.13
2018-08-13T09:03:31.194Z,2.00
2018-08-13T09:05:59.339Z,2.57
2018-08-13T09:08:27.359Z,2.17
2018-08-13T09:10:55.446Z,2.03
2018-08-13T09:13:23.538Z,2.57
2018-08-13T09:15:51.675Z,2.50
2018-08-13T09:18:31.455Z,2.57
2018-08-13T09:21:11.181Z,2.03
2018-08-13T09:23:50.767Z,2.47
2018-08-13T09:26:30.343Z,2.60
2018-08-13T09:30:09.719Z,2.67
2018-08-13T09:32:49.151Z,2.50
2018-08-13T09:35:28.274Z,2.40
2018-08-13T09:37:56.954Z,2.20
2018-08-13T09:40:25.848Z,2.67
2018-08-13T09:42:54.226Z,2.37
2018-08-13T09:45:22.283Z,2.60
2018-08-13T09:47:50.743Z,2.37
2018-08-13T09:50:19.551Z,2.10
2018-08-13T09:52:48.248Z,2.43
2018-08-13T09:55:16.920Z,1.83
2018-08-13T09:57:46.017Z,2.33
2018-08-13T10:00:20.852Z,2.23
2018-08-13T10:02:49.542Z,2.20
2018-08-13T10:05:17.711Z,2.83
2018-08-13T10:07:46.183Z,2.53
2018-08-13T10:10:14.919Z,2.40
2018-08-13T10:12:43.706Z,2.37
2018-08-13T10:15:12.593Z,2.33
2018-08-13T10:17:40.959Z,2.60
2018-08-13T10:20:12.031Z,2.70
2018-08-13T10:22:40.111Z,2.67
2018-08-13T10:25:08.910Z,2.57
2018-08-13T10:27:37.026Z,2.23
2018-08-13T10:30:06.939Z,2.40
2018-08-13T10:32:35.032Z,2.20
2018-08-13T10:35:03.103Z,2.30
2018-08-13T10:37:31.194Z,2.60
2018-08-13T10:39:59.267Z,2.27
2018-08-13T10:42:27.354Z,2.40
2018-08-13T10:44:55.676Z,2.00
2018-08-13T10:47:24.195Z,2.37
2018-08-13T10:49:52.271Z,1.90
2018-08-13T10:52:20.711Z,2.30
2018-08-13T10:54:48.823Z,2.20
2018-08-13T10:57:16.898Z,1.87
2018-08-13T10:59:44.995Z,2.67
2018-08-13T11:02:13.092Z,2.23
2018-08-13T11:04:41.179Z,2.03
2018-08-13T11:07:09.311Z,1.97
2018-08-13T11:09:37.390Z,1.50
2018-08-13T11:12:05.631Z,2.10
2018-08-13T11:14:33.895Z,1.60
2018-08-13T11:17:02.692Z,1.83
2018-08-13T11:19:30.956Z,1.93
2018-08-13T11:21:59.339Z,1.77
2018-08-13T11:24:27.456Z,1.67
2018-08-13T11:26:55.572Z,1.27
2018-08-13T11:29:23.670Z,1.50
2018-08-13T11:31:51.754Z,1.43
2018-08-13T11:34:19.830Z,1.27
2018-08-13T11:36:47.914Z,1.30
2018-08-13T11:39:16.295Z,1.40
2018-08-13T11:41:44.366Z,1.30
2018-08-13T11:44:12.446Z,1.40
2018-08-13T11:46:40.543Z,1.50
2018-08-13T11:49:08.619Z,1.30
2018-08-13T11:51:36.706Z,1.50
2018-08-13T11:54:04.846Z,1.80
2018-08-13T11:56:32.944Z,1.50
2018-08-13T11:59:01.628Z,1.60
2018-08-13T12:01:29.706Z,1.40
2018-08-13T12:03:57.783Z,1.47
2018-08-13T12:06:25.862Z,1.43
2018-08-13T12:08:53.945Z,1.80
2018-08-13T12:11:22.027Z,1.30
2018-08-13T12:13:50.103Z,1.70
2018-08-13T12:16:18.208Z,1.83
2018-08-13T12:18:46.299Z,1.40
2018-08-13T12:21:14.400Z,1.67
2018-08-13T12:23:42.480Z,1.63
2018-08-13T12:26:10.929Z,1.70
2018-08-13T12:28:39.392Z,1.70
2018-08-13T12:31:07.461Z,1.50
2018-08-13T12:33:35.608Z,1.50
2018-08-13T12:36:03.667Z,1.50
2018-08-13T12:38:31.763Z,1.90
2018-08-13T12:40:59.889Z,1.60
2018-08-13T12:43:27.914Z,1.80
2018-08-13T12:45:55.991Z,1.87
2018-08-13T12:48:24.095Z,1.90
2018-08-13T12:50:52.175Z,1.47
2018-08-13T12:53:20.288Z,1.70
2018-08-13T12:55:48.359Z,1.67
2018-08-13T12:58:16.443Z,1.70
2018-08-13T13:00:44.515Z,1.50
2018-08-13T13:03:12.599Z,1.67
2018-08-13T13:05:40.705Z,1.90
2018-08-13T13:08:08.899Z,1.90
2018-08-13T13:10:37.051Z,1.80
2018-08-13T13:13:05.206Z,1.50
2018-08-13T13:15:33.271Z,1.47
2018-08-13T13:18:01.343Z,1.93
2018-08-13T13:20:29.406Z,1.50
2018-08-13T13:22:57.466Z,1.60
2018-08-13T13:25:25.531Z,1.70
2018-08-13T13:27:53.598Z,1.60
2018-08-13T13:30:21.662Z,1.70
2018-08-13T13:32:50.059Z,1.60
2018-08-13T13:35:18.631Z,1.80
2018-08-13T13:37:46.703Z,1.30
2018-08-13T13:40:16.119Z,1.83
2018-08-13T13:42:44.235Z,1.60
2018-08-13T13:45:13.379Z,2.00
2018-08-13T13:47:41.488Z,1.70
2018-08-13T13:50:11.624Z,1.90
2018-08-13T13:52:39.694Z,1.60
2018-08-13T13:55:07.890Z,1.63
2018-08-13T13:57:35.951Z,1.90
2018-08-13T14:00:07.739Z,1.70
2018-08-13T14:02:35.828Z,1.47
2018-08-13T14:05:04.598Z,1.70
2018-08-13T14:07:32.659Z,1.80
2018-08-13T14:10:00.738Z,1.90
2018-08-13T14:12:28.814Z,1.87
2018-08-13T14:14:56.903Z,2.40
2018-08-13T14:17:25.020Z,2.10
2018-08-13T14:19:53.039Z,1.60
2018-08-13T14:22:21.114Z,2.20
2018-08-13T14:24:49.170Z,1.80
2018-08-13T14:27:17.231Z,1.73
2018-08-13T14:29:45.300Z,1.93
2018-08-13T14:32:13.363Z,1.40
2018-08-13T14:34:41.457Z,2.03
2018-08-13T14:37:09.524Z,1.90
2018-08-13T14:39:37.602Z,1.83
2018-08-13T14:42:05.671Z,1.70
2018-08-13T14:44:33.734Z,1.73
2018-08-13T14:47:01.799Z,1.60
2018-08-13T14:49:29.890Z,1.80
2018-08-13T14:51:57.949Z,2.03
2018-08-13T14:54:26.023Z,2.23
2018-08-13T14:56:54.093Z,1.93
2018-08-13T14:59:22.166Z,2.00
2018-08-13T15:01:50.230Z,1.90
2018-08-13T15:04:18.291Z,2.00
2018-08-13T15:06:46.370Z,1.80
2018-08-13T15:09:14.832Z,1.80
2018-08-13T15:11:42.894Z,1.57
2018-08-13T15:14:13.478Z,2.10
2018-08-13T15:16:41.811Z,2.00
2018-08-13T15:19:10.891Z,1.57
2018-08-13T15:21:38.935Z,2.00
2018-08-13T15:24:07.025Z,1.93
2018-08-13T15:26:35.135Z,1.97
2018-08-13T15:29:03.214Z,2.30
2018-08-13T15:31:31.298Z,2.40
2018-08-13T15:33:59.388Z,2.97
2018-08-13T15:36:27.488Z,2.10
2018-08-13T15:38:55.570Z,2.10
2018-08-13T15:41:23.658Z,5.53
2018-08-13T15:43:51.739Z,2.20
2018-08-13T15:46:19.826Z,5.17
2018-08-13T15:48:47.907Z,2.20
2018-08-13T15:51:15.994Z,2.27
2018-08-13T15:53:44.071Z,1.97
2018-08-13T15:56:12.164Z,1.77
2018-08-13T15:58:40.243Z,2.20
2018-08-13T16:01:08.326Z,2.23
2018-08-13T16:03:36.418Z,2.20
2018-08-13T16:06:04.896Z,2.17
2018-08-13T16:08:32.971Z,2.20
2018-08-13T16:11:01.363Z,2.40
2018-08-13T16:13:29.434Z,2.63
2018-08-13T16:15:57.506Z,2.63
2018-08-13T16:18:25.612Z,2.40
2018-08-13T16:20:53.698Z,2.40
2018-08-13T16:23:21.783Z,2.40
2018-08-13T16:25:49.866Z,2.30
2018-08-13T16:28:17.926Z,2.13
2018-08-13T16:30:46.019Z,2.80
2018-08-13T16:33:14.079Z,2.30
2018-08-13T16:35:42.171Z,1.90
2018-08-13T16:38:10.238Z,2.30
2018-08-13T16:40:38.334Z,2.17
2018-08-13T16:43:06.659Z,2.07
2018-08-13T16:45:34.722Z,2.10
2018-08-13T16:48:02.802Z,2.30
2018-08-13T16:50:32.122Z,2.07
2018-08-13T16:53:00.679Z,1.93
2018-08-13T16:55:30.120Z,2.70
2018-08-13T16:57:58.846Z,2.60
2018-08-13T17:00:28.158Z,2.40
2018-08-13T17:02:56.553Z,2.63
2018-08-13T17:05:25.019Z,2.40
2018-08-13T17:07:53.202Z,2.53
2018-08-13T17:10:28.945Z,3.20
2018-08-13T17:12:58.206Z,2.30
2018-08-13T17:15:27.582Z,2.20
2018-08-13T17:17:56.997Z,2.10
2018-08-13T17:20:27.612Z,2.10
2018-08-13T17:22:55.683Z,2.20
2018-08-13T17:25:23.760Z,2.17
2018-08-13T17:27:51.879Z,1.90
2018-08-13T17:30:21.894Z,2.60
2018-08-13T17:32:50.942Z,2.70
2018-08-13T17:35:20.735Z,2.27
2018-08-13T17:37:49.351Z,2.20
2018-08-13T17:40:21.626Z,2.07
2018-08-13T17:42:50.571Z,2.33
2018-08-13T17:45:18.511Z,2.73
2018-08-13T17:47:46.579Z,2.50
2018-08-13T17:50:16.011Z,2.53
2018-08-13T17:52:44.463Z,3.00
2018-08-13T17:55:13.179Z,2.73
2018-08-13T17:57:41.768Z,2.80
2018-08-13T18:00:23.238Z,2.80
2018-08-13T18:02:51.342Z,2.50
2018-08-13T18:05:21.595Z,2.40
2018-08-13T18:07:50.084Z,2.20
2018-08-13T18:10:21.791Z,2.60
2018-08-13T18:12:49.870Z,2.20
2018-08-13T18:15:18.053Z,2.40
2018-08-13T18:17:46.563Z,2.20
2018-08-13T18:20:14.648Z,4.70
2018-08-13T18:22:42.749Z,3.57
2018-08-13T18:25:12.589Z,2.83
2018-08-13T18:27:42.387Z,2.17
2018-08-13T18:30:13.124Z,2.50
2018-08-13T18:32:41.203Z,2.30
2018-08-13T18:35:09.451Z,2.17
2018-08-13T18:37:37.527Z,2.50
2018-08-13T18:40:07.787Z,1.90
2018-08-13T18:42:35.883Z,2.33
2018-08-13T18:45:04.591Z,2.40
2018-08-13T18:47:32.679Z,2.10
2018-08-13T18:50:00.743Z,2.03
2018-08-13T18:52:28.823Z,2.23
2018-08-13T18:54:56.906Z,1.83
2018-08-13T18:57:24.991Z,2.10
2018-08-13T18:59:53.059Z,2.47
2018-08-13T19:02:21.134Z,2.03
2018-08-13T19:04:49.320Z,1.90
2018-08-13T19:07:17.291Z,2.00
2018-08-13T19:09:45.771Z,1.87
2018-08-13T19:12:13.836Z,2.00
2018-08-13T19:14:41.910Z,2.53
2018-08-13T19:17:09.994Z,1.70
2018-08-13T19:19:38.083Z,2.00
2018-08-13T19:22:06.470Z,2.33
2018-08-13T19:24:34.550Z,1.87
2018-08-13T19:27:02.619Z,2.30
2018-08-13T19:29:30.711Z,2.00
2018-08-13T19:31:58.890Z,1.93
2018-08-13T19:34:26.975Z,1.97
2018-08-13T19:36:55.135Z,1.87
2018-08-13T19:39:23.227Z,2.07
2018-08-13T19:41:51.314Z,1.87
2018-08-13T19:44:19.400Z,2.00
2018-08-13T19:46:47.487Z,1.90
2018-08-13T19:49:15.679Z,2.17
2018-08-13T19:51:43.767Z,2.30
2018-08-13T19:54:11.838Z,2.10
2018-08-13T19:56:39.918Z,1.90
2018-08-13T19:59:08.178Z,2.67
2018-08-13T20:01:36.251Z,1.80
2018-08-13T20:04:04.326Z,2.23
2018-08-13T20:06:32.400Z,1.83
2018-08-13T20:09:00.483Z,1.90
2018-08-13T20:11:28.558Z,2.23
2018-08-13T20:13:57.058Z,1.90
2018-08-13T20:16:25.143Z,2.07
2018-08-13T20:18:53.222Z,2.20
2018-08-13T20:21:21.303Z,1.77
2018-08-13T20:23:49.391Z,1.80
2018-08-13T20:26:17.462Z,1.63
2018-08-13T20:28:45.547Z,1.70
2018-08-13T20:31:13.627Z,1.37
2018-08-13T20:33:41.707Z,1.30
2018-08-13T20:36:09.774Z,1.63
2018-08-13T20:38:37.877Z,1.70
2018-08-13T20:41:05.962Z,1.43
2018-08-13T20:43:34.046Z,1.40
2018-08-13T20:46:02.123Z,1.57
2018-08-13T20:48:30.233Z,1.43
2018-08-13T20:50:58.306Z,1.40
2018-08-13T20:53:26.411Z,1.50
2018-08-13T20:55:54.496Z,1.43
2018-08-13T20:58:23.070Z,1.43
2018-08-13T21:00:51.390Z,1.60
2018-08-13T21:03:19.466Z,1.97
2018-08-13T21:05:47.551Z,1.57
2018-08-13T21:08:15.634Z,1.77
2018-08-13T21:10:44.011Z,1.47
2018-08-13T21:13:12.575Z,1.40
2018-08-13T21:15:40.659Z,1.70
2018-08-13T21:18:08.735Z,1.40
2018-08-13T21:20:36.810Z,1.60
2018-08-13T21:23:04.879Z,1.40
2018-08-13T21:25:32.976Z,1.57
2018-08-13T21:28:01.003Z,1.90
2018-08-13T21:30:29.071Z,1.90
2018-08-13T21:32:57.126Z,1.90
2018-08-13T21:35:25.902Z,1.70
2018-08-13T21:37:53.962Z,2.20
2018-08-13T21:40:22.032Z,1.90
2018-08-13T21:42:50.633Z,1.60
2018-08-13T21:45:18.675Z,2.00
2018-08-13T21:47:46.753Z,2.47
2018-08-13T21:50:18.032Z,2.43
2018-08-13T21:52:46.680Z,2.67
2018-08-13T21:55:14.758Z,2.30
2018-08-13T21:57:42.830Z,3.30
2018-08-13T22:00:31.779Z,3.47
2018-08-13T22:03:01.282Z,3.20
2018-08-13T22:05:29.342Z,3.00
2018-08-13T22:07:57.428Z,3.23
2018-08-13T22:10:25.533Z,4.10
2018-08-13T22:12:53.614Z,4.00
2018-08-13T22:15:26.657Z,3.90
2018-08-13T22:17:55.947Z,3.60
2018-08-13T22:20:24.542Z,3.47
2018-08-13T22:22:52.703Z,3.50
2018-08-13T22:25:23.494Z,3.37
2018-08-13T22:27:51.558Z,3.73
2018-08-13T22:30:19.630Z,3.90
2018-08-13T22:32:47.687Z,3.57
2018-08-13T22:35:15.751Z,4.20
2018-08-13T22:37:44.139Z,4.10
2018-08-13T22:40:14.963Z,4.07
2018-08-13T22:42:43.927Z,5.13
2018-08-13T22:45:12.020Z,4.70
2018-08-13T22:47:40.782Z,5.10
2018-08-13T22:50:10.079Z,4.73
2018-08-13T22:52:38.166Z,5.20
2018-08-13T22:55:08.166Z,4.87
2018-08-13T22:57:36.311Z,4.30
2018-08-13T23:00:06.190Z,5.33
2018-08-13T23:02:34.276Z,5.60
2018-08-13T23:05:02.340Z,5.70
2018-08-13T23:07:30.394Z,7.53
2018-08-13T23:09:58.459Z,6.83
2018-08-13T23:12:26.558Z,7.63
2018-08-13T23:14:54.619Z,8.00
2018-08-13T23:17:22.707Z,8.67
2018-08-13T23:19:50.791Z,8.60
2018-08-13T23:23:03.237Z,10.73
2018-08-13T23:25:32.842Z,12.63
2018-08-13T23:28:03.168Z,12.63
2018-08-13T23:30:31.267Z,12.30
2018-08-13T23:33:00.124Z,11.17
2018-08-13T23:35:28.913Z,11.07
2018-08-13T23:37:56.990Z,11.10
2018-08-13T23:40:25.838Z,11.13
2018-08-13T23:42:53.922Z,10.63
2018-08-13T23:45:23.827Z,10.70
2018-08-13T23:47:52.147Z,11.33
2018-08-13T23:50:22.036Z,10.57
2018-08-13T23:52:51.446Z,12.40
2018-08-13T23:55:25.331Z,13.47
2018-08-13T23:57:53.594Z,12.10
